Time;durP1;ratioP1;P1;durP2;ratioP2;P2;SDS_P1;SDS_P2;PMS_P1;PMS_P2;Temp;Humidity;BMP_temperature;BMP_pressure;BME280_temperature;BME280_humidity;BME280_pressure;Samples;Min_cycle;Max_cycle;Signal;HPM_P1;HPM_P2
2021/11/11 00:01:21;;;;;;;19.27;11.23;;;2.60;99.90;;;;;;5137970;27;20542;-83
2021/11/11 00:03:51;;;;;;;16.27;9.20;;;2.50;99.90;;;;;;5117398;28;20803;-83
2021/11/11 00:06:17;;;;;;;15.53;9.47;;;2.50;99.90;;;;;;5124375;28;20444;-83
2021/11/11 00:08:45;;;;;;;19.43;9.90;;;2.50;99.90;;;;;;5136061;27;20419;-82
2021/11/11 00:11:11;;;;;;;17.53;9.83;;;2.40;99.90;;;;;;5130768;28;20448;-82
2021/11/11 00:13:38;;;;;;;26.40;10.33;;;2.50;99.90;;;;;;5136551;28;20440;-84
2021/11/11 00:16:06;;;;;;;23.53;10.63;;;2.40;99.90;;;;;;5136922;28;20446;-84
2021/11/11 00:18:34;;;;;;;19.33;10.07;;;2.50;99.90;;;;;;5136954;28;20444;-83
2021/11/11 00:21:05;;;;;;;21.37;9.87;;;2.50;99.90;;;;;;5136708;28;20487;-84
2021/11/11 00:23:32;;;;;;;19.30;9.10;;;2.50;99.90;;;;;;5137155;28;20505;-82
2021/11/11 00:26:02;;;;;;;18.43;10.03;;;2.50;99.90;;;;;;5138208;28;20527;-84
2021/11/11 00:28:29;;;;;;;17.50;9.37;;;2.40;99.90;;;;;;5137479;28;20444;-84
2021/11/11 00:30:55;;;;;;;15.47;9.07;;;2.40;99.90;;;;;;5123175;28;20518;-84
2021/11/11 00:33:22;;;;;;;20.33;9.73;;;2.40;99.90;;;;;;5133693;28;20429;-84
2021/11/11 00:35:51;;;;;;;15.90;8.63;;;2.40;99.90;;;;;;5135897;27;20568;-84
2021/11/11 00:38:21;;;;;;;14.63;9.03;;;2.30;99.90;;;;;;5131953;28;20547;-84
2021/11/11 00:40:48;;;;;;;19.73;9.23;;;2.40;99.90;;;;;;5132179;28;20460;-84
2021/11/11 00:43:14;;;;;;;17.27;8.50;;;2.30;99.90;;;;;;5119386;28;20448;-85
2021/11/11 00:45:41;;;;;;;15.20;8.43;;;2.40;99.90;;;;;;5115241;28;20531;-84
2021/11/11 00:48:12;;;;;;;17.53;9.43;;;2.30;99.90;;;;;;5122943;28;20929;-83
2021/11/11 00:50:44;;;;;;;16.17;9.77;;;2.30;99.90;;;;;;5123486;27;21007;-83
2021/11/11 00:53:12;;;;;;;16.90;10.10;;;2.30;99.90;;;;;;5124003;28;20953;-84
2021/11/11 00:55:39;;;;;;;17.87;9.70;;;2.30;99.90;;;;;;5134092;27;20465;-84
2021/11/11 00:58:09;;;;;;;17.90;9.97;;;2.30;99.90;;;;;;5139151;27;20450;-84
2021/11/11 01:00:38;;;;;;;14.73;8.73;;;2.20;99.90;;;;;;5139346;27;20887;-83
2021/11/11 01:03:06;;;;;;;14.10;8.00;;;2.20;99.90;;;;;;5140314;27;20447;-83
2021/11/11 01:05:33;;;;;;;17.00;10.13;;;2.20;99.90;;;;;;5138147;27;20453;-82
2021/11/11 01:08:00;;;;;;;19.30;10.73;;;2.20;99.90;;;;;;5136535;27;20539;-84
2021/11/11 01:10:28;;;;;;;16.80;9.60;;;2.10;99.90;;;;;;5127607;27;20546;-84
2021/11/11 01:12:57;;;;;;;17.27;9.07;;;2.20;99.90;;;;;;5120736;28;20445;-84
2021/11/11 01:15:28;;;;;;;17.47;10.10;;;2.20;99.90;;;;;;5126123;27;20472;-83
2021/11/11 01:17:55;;;;;;;16.53;10.10;;;2.20;99.90;;;;;;5131703;27;20460;-83
2021/11/11 01:20:22;;;;;;;20.83;9.80;;;2.20;99.90;;;;;;5134376;27;20559;-82
2021/11/11 01:22:50;;;;;;;17.00;9.63;;;2.20;99.90;;;;;;5132245;27;20444;-83
2021/11/11 01:25:19;;;;;;;16.38;9.35;;;2.20;99.90;;;;;;5140029;27;20445;-83
2021/11/11 01:27:48;;;;;;;16.43;10.00;;;2.10;99.90;;;;;;5140037;27;20678;-83
2021/11/11 01:30:16;;;;;;;15.63;9.00;;;2.10;99.90;;;;;;5135457;27;20479;-84
2021/11/11 01:32:43;;;;;;;15.40;9.17;;;2.10;99.90;;;;;;5133082;27;20472;-83
2021/11/11 01:35:13;;;;;;;20.13;9.87;;;2.10;99.90;;;;;;5138917;27;20604;-84
2021/11/11 01:37:41;;;;;;;18.70;10.23;;;2.10;99.90;;;;;;5137593;27;20956;-84
2021/11/11 01:40:09;;;;;;;15.03;9.17;;;2.10;99.90;;;;;;5133876;27;20479;-82
2021/11/11 01:42:45;;;;;;;21.83;9.63;;;2.10;99.90;;;;;;5138825;27;20448;-83
2021/11/11 01:45:13;;;;;;;16.47;9.83;;;2.10;99.90;;;;;;5132782;27;20450;-84
2021/11/11 01:47:41;;;;;;;19.00;11.00;;;2.10;99.90;;;;;;5138227;27;20447;-84
2021/11/11 01:50:09;;;;;;;16.20;9.70;;;2.00;99.90;;;;;;5141281;27;20468;-82
2021/11/11 01:52:36;;;;;;;20.90;9.60;;;2.00;99.90;;;;;;5123885;27;20441;-84
2021/11/11 01:55:04;;;;;;;17.63;9.33;;;2.00;99.90;;;;;;5139558;27;20472;-84
2021/11/11 01:57:32;;;;;;;12.65;8.60;;;2.10;99.90;;;;;;5142175;27;20478;-84
2021/11/11 01:59:59;;;;;;;21.57;9.97;;;2.10;99.90;;;;;;5142349;27;20222;-81
2021/11/11 02:02:29;;;;;;;14.32;8.35;;;2.10;99.90;;;;;;5124512;27;20445;-83
2021/11/11 02:04:55;;;;;;;19.30;9.30;;;2.10;99.90;;;;;;5141894;27;20194;-84
2021/11/11 02:07:23;;;;;;;16.00;9.30;;;2.00;99.90;;;;;;5139359;27;20444;-84
2021/11/11 02:09:50;;;;;;;15.80;9.07;;;2.00;99.90;;;;;;5132103;27;20475;-83
2021/11/11 02:12:17;;;;;;;17.98;10.00;;;2.00;99.90;;;;;;5132230;27;20450;-85
2021/11/11 02:14:44;;;;;;;17.17;9.50;;;2.00;99.90;;;;;;5142197;27;20230;-84
2021/11/11 02:17:11;;;;;;;17.33;9.83;;;2.00;99.90;;;;;;5143982;27;20454;-82
2021/11/11 02:19:43;;;;;;;15.30;9.47;;;1.90;99.90;;;;;;5142116;27;20478;-83
2021/11/11 02:22:10;;;;;;;16.73;9.83;;;1.90;99.90;;;;;;5139698;27;20449;-83
2021/11/11 02:24:37;;;;;;;17.13;10.23;;;1.90;99.90;;;;;;5130910;27;20442;-84
2021/11/11 02:27:04;;;;;;;16.10;9.10;;;1.90;99.90;;;;;;5119848;28;20231;-82
2021/11/11 02:29:31;;;;;;;15.73;9.40;;;1.90;99.90;;;;;;5123503;27;20987;-84
2021/11/11 02:31:59;;;;;;;20.53;10.40;;;1.90;99.90;;;;;;5139520;27;20790;-83
2021/11/11 02:34:26;;;;;;;17.17;9.83;;;1.90;99.90;;;;;;5136325;27;20824;-82
2021/11/11 02:37:01;;;;;;;17.23;10.10;;;1.90;99.90;;;;;;5138675;27;20449;-83
2021/11/11 02:39:31;;;;;;;15.25;9.20;;;1.90;99.90;;;;;;5116367;28;20444;-83
2021/11/11 02:41:58;;;;;;;15.53;9.90;;;1.90;99.90;;;;;;5126966;27;20202;-82
2021/11/11 02:46:56;;;;;;;15.40;9.70;;;1.90;99.90;;;;;;5035774;22;20580;-84
2021/11/11 02:49:23;;;;;;;20.43;11.13;;;1.80;99.90;;;;;;5114207;28;20452;-84
2021/11/11 02:51:50;;;;;;;23.93;11.00;;;1.80;99.90;;;;;;5117532;28;20454;-85
2021/11/11 02:54:18;;;;;;;16.77;10.37;;;1.80;99.90;;;;;;5119324;28;20457;-85
2021/11/11 02:56:44;;;;;;;16.27;9.07;;;1.80;99.90;;;;;;5027922;28;20461;-84
2021/11/11 02:59:11;;;;;;;17.67;9.80;;;1.90;99.90;;;;;;5023830;28;20456;-85
2021/11/11 03:01:38;;;;;;;17.50;10.27;;;1.80;99.90;;;;;;5015149;28;20445;-85
2021/11/11 03:04:05;;;;;;;16.85;9.35;;;1.80;99.90;;;;;;5017852;28;20460;-85
2021/11/11 03:06:32;;;;;;;22.48;9.18;;;1.80;99.90;;;;;;5018587;28;20223;-84
2021/11/11 03:09:00;;;;;;;16.42;9.80;;;1.80;99.90;;;;;;5072231;28;20269;-84
2021/11/11 03:11:29;;;;;;;13.30;8.57;;;1.80;99.90;;;;;;5117549;28;20286;-84
2021/11/11 03:13:55;;;;;;;17.93;11.53;;;1.80;99.90;;;;;;5119161;28;20449;-84
2021/11/11 03:16:22;;;;;;;15.60;9.13;;;1.70;99.90;;;;;;5119170;28;20496;-84
2021/11/11 03:18:49;;;;;;;15.90;10.23;;;1.70;99.90;;;;;;5071794;28;20460;-84
2021/11/11 03:21:16;;;;;;;19.53;11.57;;;1.70;99.90;;;;;;5015620;28;20218;-84
2021/11/11 03:23:43;;;;;;;20.57;12.40;;;1.70;99.90;;;;;;5015522;28;20446;-84
2021/11/11 03:26:10;;;;;;;16.60;9.70;;;1.70;99.90;;;;;;5015399;28;20472;-84
2021/11/11 03:28:38;;;;;;;23.25;12.38;;;1.70;99.90;;;;;;5052812;28;20881;-84
2021/11/11 03:31:05;;;;;;;19.40;10.43;;;1.60;99.90;;;;;;5118015;28;20298;-84
2021/11/11 03:33:32;;;;;;;17.45;10.20;;;1.60;99.90;;;;;;5120809;28;20467;-84
2021/11/11 03:35:59;;;;;;;19.50;10.03;;;1.60;99.90;;;;;;5117953;28;20236;-84
2021/11/11 03:38:25;;;;;;;18.07;10.00;;;1.60;99.90;;;;;;5093782;28;20824;-84
2021/11/11 03:40:52;;;;;;;18.23;9.20;;;1.60;99.90;;;;;;5014886;28;20457;-84
2021/11/11 03:43:19;;;;;;;17.50;9.93;;;1.60;99.90;;;;;;5016651;28;20446;-85
2021/11/11 03:45:47;;;;;;;21.60;10.77;;;1.60;99.90;;;;;;5016492;28;20576;-84
2021/11/11 03:48:14;;;;;;;18.70;10.50;;;1.60;99.90;;;;;;5032498;28;20445;-82
2021/11/11 03:50:41;;;;;;;19.33;10.67;;;1.60;99.90;;;;;;5118081;28;20445;-82
2021/11/11 03:53:08;;;;;;;17.05;10.93;;;1.60;99.90;;;;;;5028126;28;20498;-83
2021/11/11 03:55:35;;;;;;;16.95;10.18;;;1.50;99.90;;;;;;5014670;28;20227;-82
2021/11/11 03:58:02;;;;;;;21.30;11.37;;;1.50;99.90;;;;;;5013039;28;20205;-83
2021/11/11 04:00:29;;;;;;;15.25;8.40;;;1.50;99.90;;;;;;5018903;28;20449;-83
2021/11/11 04:02:58;;;;;;;19.75;9.85;;;1.50;99.90;;;;;;5004543;28;20207;-83
2021/11/11 04:05:25;;;;;;;16.42;9.20;;;1.50;99.90;;;;;;4995946;28;20238;-83
2021/11/11 04:07:52;;;;;;;17.30;9.20;;;1.50;99.90;;;;;;5072941;28;20199;-82
2021/11/11 04:10:19;;;;;;;18.47;9.90;;;1.50;99.90;;;;;;5116261;28;20451;-80
2021/11/11 04:12:45;;;;;;;17.70;9.73;;;1.40;99.90;;;;;;5031923;28;20851;-79
2021/11/11 04:15:14;;;;;;;5.53;2.53;;;1.50;99.90;;;;;;5009804;28;20490;-79
2021/11/11 04:17:41;;;;;;;15.23;9.43;;;5.30;99.90;;;;;;5016889;28;20458;-80
2021/11/11 04:20:11;;;;;;;24.60;13.40;;;6.70;99.90;;;;;;5008955;28;20447;-79
2021/11/11 04:22:38;;;;;;;20.00;12.03;;;6.80;99.90;;;;;;5011511;28;20455;-81
2021/11/11 04:25:08;;;;;;;18.77;10.63;;;5.90;99.90;;;;;;5012771;28;20461;-82
2021/11/11 04:27:40;;;;;;;18.43;11.90;;;5.00;99.90;;;;;;5022550;28;20485;-82
2021/11/11 04:30:14;;;;;;;22.70;12.53;;;4.40;99.90;;;;;;5014039;28;20470;-81
2021/11/11 04:32:40;;;;;;;17.87;10.33;;;3.40;99.90;;;;;;5023552;28;20446;-82
2021/11/11 04:35:10;;;;;;;18.83;10.83;;;3.40;99.90;;;;;;5010912;28;20493;-85
2021/11/11 04:37:44;;;;;;;16.70;10.03;;;3.10;99.90;;;;;;5021393;28;20822;-82
2021/11/11 04:46:07;;;;;;;19.90;9.73;;;2.30;99.90;;;;;;5013475;28;20462;-82
2021/11/11 04:48:54;;;;;;;18.87;11.00;;;2.20;99.90;;;;;;5025546;28;20450;-80
2021/11/11 04:59:46;;;;;;;18.50;8.80;;;1.80;99.90;;;;;;5128921;28;20423;-80
2021/11/11 05:05:07;;;;;;;20.40;11.57;;;1.60;99.90;;;;;;5088860;28;20457;-81
2021/11/11 05:07:35;;;;;;;20.27;11.00;;;1.60;99.90;;;;;;5032780;28;20512;-81
2021/11/11 05:10:02;;;;;;;23.17;10.63;;;1.50;99.90;;;;;;5022724;28;20442;-80
2021/11/11 05:12:29;;;;;;;20.07;11.67;;;1.50;99.90;;;;;;5022675;28;20206;-81
2021/11/11 05:14:55;;;;;;;18.40;10.13;;;1.50;99.90;;;;;;5024224;28;20480;-81
2021/11/11 05:17:24;;;;;;;17.15;9.73;;;1.50;99.90;;;;;;5123539;28;20619;-80
2021/11/11 05:19:52;;;;;;;18.42;10.48;;;1.50;99.90;;;;;;5127406;28;20215;-80
2021/11/11 05:22:20;;;;;;;18.85;10.00;;;1.40;99.90;;;;;;5129377;28;20207;-81
2021/11/11 05:24:48;;;;;;;18.60;11.50;;;1.40;99.90;;;;;;5128413;28;20703;-81
2021/11/11 05:27:16;;;;;;;19.95;9.55;;;1.40;99.90;;;;;;5040906;28;20474;-84
2021/11/11 05:29:44;;;;;;;17.90;9.85;;;1.30;99.90;;;;;;5025251;28;20214;-81
2021/11/11 05:32:11;;;;;;;17.48;9.77;;;1.40;99.90;;;;;;5023894;28;20298;-81
2021/11/11 05:34:38;;;;;;;19.97;10.47;;;1.40;99.90;;;;;;5022823;28;20210;-81
2021/11/11 05:37:05;;;;;;;20.97;11.60;;;1.40;99.90;;;;;;5097979;28;20863;-81
2021/11/11 05:39:33;;;;;;;21.30;10.73;;;1.40;99.90;;;;;;5121356;28;20443;-81
2021/11/11 05:42:02;;;;;;;19.43;10.33;;;1.40;99.90;;;;;;5120655;28;20230;-82
2021/11/11 05:44:28;;;;;;;20.73;11.65;;;1.40;99.90;;;;;;5119651;28;20448;-79
2021/11/11 05:46:56;;;;;;;17.13;10.43;;;1.40;99.90;;;;;;5024232;28;20231;-81
2021/11/11 05:49:23;;;;;;;17.85;10.52;;;1.40;99.90;;;;;;5023519;28;20229;-81
2021/11/11 05:51:50;;;;;;;23.17;10.60;;;1.40;99.90;;;;;;5024809;28;20199;-80
2021/11/11 05:54:17;;;;;;;18.93;10.50;;;1.40;99.90;;;;;;5025110;28;20253;-80
2021/11/11 05:56:44;;;;;;;22.20;11.63;;;1.40;99.90;;;;;;5035286;28;21026;-80
2021/11/11 05:59:13;;;;;;;25.90;12.33;;;1.40;99.90;;;;;;5032263;28;20517;-80
2021/11/11 06:01:40;;;;;;;17.83;10.13;;;1.40;99.90;;;;;;5033270;28;20633;-80
2021/11/11 06:04:07;;;;;;;32.75;11.82;;;1.50;99.90;;;;;;5032042;28;20266;-80
2021/11/11 06:06:34;;;;;;;19.98;10.82;;;1.50;99.90;;;;;;5019921;28;20228;-81
2021/11/11 06:09:00;;;;;;;17.88;10.13;;;1.50;99.90;;;;;;5007794;28;20218;-81
2021/11/11 06:11:27;;;;;;;20.63;12.18;;;1.50;99.90;;;;;;5016387;28;20222;-81
2021/11/11 06:13:54;;;;;;;21.08;10.95;;;1.50;99.90;;;;;;4999794;28;20211;-80
2021/11/11 06:16:22;;;;;;;20.63;11.93;;;1.50;99.90;;;;;;4999981;28;20231;-80
2021/11/11 06:18:50;;;;;;;20.00;11.60;;;1.50;99.90;;;;;;4999613;28;20683;-80
2021/11/11 06:21:17;;;;;;;22.65;12.15;;;1.50;99.90;;;;;;5013370;28;21320;-80
2021/11/11 06:23:44;;;;;;;19.05;11.32;;;1.50;99.90;;;;;;5034543;28;20310;-80
2021/11/11 06:26:11;;;;;;;21.48;12.00;;;1.50;99.90;;;;;;5011357;28;20785;-81
2021/11/11 06:28:38;;;;;;;17.15;11.13;;;1.50;99.90;;;;;;5018679;28;20201;-80
2021/11/11 06:31:04;;;;;;;22.30;12.23;;;1.50;99.90;;;;;;5020991;28;20206;-80
2021/11/11 06:33:33;;;;;;;27.77;12.50;;;1.50;99.90;;;;;;5018343;28;20457;-81
2021/11/11 06:35:59;;;;;;;22.50;12.10;;;1.50;99.90;;;;;;5016922;28;20493;-81
2021/11/11 06:38:26;;;;;;;26.50;12.88;;;1.50;99.90;;;;;;5011514;28;20218;-80
2021/11/11 06:40:54;;;;;;;24.23;12.85;;;1.50;99.90;;;;;;5051804;28;20198;-82
2021/11/11 06:43:22;;;;;;;20.83;12.52;;;1.50;99.90;;;;;;5048386;28;20218;-81
2021/11/11 06:45:49;;;;;;;22.50;11.93;;;1.50;99.90;;;;;;5007577;28;20233;-80
2021/11/11 06:48:16;;;;;;;24.83;12.27;;;1.60;99.90;;;;;;5023835;28;20289;-80
2021/11/11 06:50:45;;;;;;;21.50;13.75;;;1.60;99.90;;;;;;5035682;28;20529;-80
2021/11/11 06:53:14;;;;;;;19.27;12.25;;;1.60;99.90;;;;;;5033440;28;20198;-82
2021/11/11 06:55:42;;;;;;;26.60;13.97;;;1.60;99.90;;;;;;5024450;28;20219;-82
2021/11/11 06:58:09;;;;;;;24.47;12.87;;;1.70;99.90;;;;;;5027273;28;20465;-81
2021/11/11 07:00:41;;;;;;;23.67;13.80;;;1.70;99.90;;;;;;5026809;28;20502;-82
2021/11/11 07:03:08;;;;;;;27.75;14.60;;;1.80;99.90;;;;;;5025429;28;20460;-79
2021/11/11 07:05:37;;;;;;;24.67;13.60;;;1.80;99.90;;;;;;5030070;28;20215;-81
2021/11/11 07:08:09;;;;;;;21.90;12.52;;;1.90;99.90;;;;;;5030557;28;20261;-81
2021/11/11 07:10:35;;;;;;;20.83;12.87;;;1.90;99.90;;;;;;5031631;28;20183;-81
2021/11/11 07:13:05;;;;;;;28.77;14.70;;;2.00;99.90;;;;;;5026895;28;20529;-80
2021/11/11 07:15:36;;;;;;;25.90;14.37;;;2.00;99.90;;;;;;5032371;28;20247;-80
2021/11/11 07:18:03;;;;;;;21.13;13.30;;;2.00;99.90;;;;;;5025290;28;20449;-81
2021/11/11 07:20:31;;;;;;;23.30;15.03;;;2.00;99.90;;;;;;5025898;28;20540;-81
2021/11/11 07:23:04;;;;;;;24.80;14.40;;;2.10;99.90;;;;;;5028284;28;20494;-82
2021/11/11 07:25:37;;;;;;;29.50;15.80;;;2.20;99.90;;;;;;5018070;28;20497;-82
2021/11/11 07:28:04;;;;;;;23.87;13.40;;;2.30;99.90;;;;;;5022028;28;20479;-81
2021/11/11 07:30:31;;;;;;;29.73;15.40;;;2.30;99.90;;;;;;5016378;28;20525;-82
2021/11/11 07:32:59;;;;;;;25.85;13.60;;;2.40;99.90;;;;;;5029194;28;20438;-82
2021/11/11 07:35:25;;;;;;;25.23;14.57;;;2.40;99.90;;;;;;5023002;28;20306;-82
2021/11/11 07:37:53;;;;;;;24.17;14.57;;;2.40;99.90;;;;;;5023964;28;20486;-82
2021/11/11 07:40:23;;;;;;;24.90;15.10;;;2.40;99.90;;;;;;5023930;28;20459;-82
2021/11/11 07:42:54;;;;;;;26.53;14.77;;;2.50;99.90;;;;;;5027022;28;20468;-82
2021/11/11 07:45:25;;;;;;;27.63;14.23;;;2.60;99.90;;;;;;5025167;28;20485;-82
2021/11/11 07:47:56;;;;;;;28.00;17.13;;;2.60;99.90;;;;;;5024210;28;20450;-82
2021/11/11 07:50:25;;;;;;;24.57;15.07;;;2.60;99.90;;;;;;5023986;28;20967;-83
2021/11/11 07:52:52;;;;;;;23.70;15.10;;;2.60;99.90;;;;;;5029676;28;20449;-82
2021/11/11 07:55:21;;;;;;;26.20;14.93;;;2.70;99.90;;;;;;5026966;28;20489;-82
2021/11/11 07:57:49;;;;;;;23.50;15.47;;;2.70;99.90;;;;;;5027260;28;20481;-82
2021/11/11 08:00:19;;;;;;;25.07;14.77;;;2.80;99.90;;;;;;5031350;28;20437;-81
2021/11/11 08:02:46;;;;;;;21.97;13.57;;;2.90;99.90;;;;;;5030315;28;20468;-82
2021/11/11 08:05:17;;;;;;;28.17;15.80;;;3.00;99.90;;;;;;5032669;28;20525;-82
2021/11/11 08:07:45;;;;;;;26.60;15.50;;;3.10;99.90;;;;;;5029989;28;20468;-82
2021/11/11 08:10:12;;;;;;;25.50;15.50;;;3.20;99.90;;;;;;5020404;28;20461;-82
2021/11/11 08:12:40;;;;;;;22.83;12.70;;;3.20;99.90;;;;;;5014929;28;20462;-82
2021/11/11 08:15:08;;;;;;;24.57;14.33;;;3.30;99.90;;;;;;5019272;28;20551;-82
2021/11/11 08:17:36;;;;;;;22.93;14.77;;;3.40;99.90;;;;;;5022678;28;20481;-82
2021/11/11 08:20:05;;;;;;;26.70;16.20;;;3.50;99.90;;;;;;5016082;28;20485;-82
2021/11/11 08:22:32;;;;;;;24.63;15.20;;;3.60;99.90;;;;;;5026975;28;20490;-82
2021/11/11 08:25:01;;;;;;;27.17;17.00;;;3.70;99.90;;;;;;5023125;28;20470;-82
2021/11/11 08:27:28;;;;;;;30.30;15.77;;;3.80;99.90;;;;;;5017867;28;20459;-82
2021/11/11 08:29:56;;;;;;;28.30;16.10;;;3.90;99.90;;;;;;5021035;28;20530;-82
2021/11/11 08:32:22;;;;;;;29.63;16.33;;;4.10;99.90;;;;;;5025565;28;20456;-82
2021/11/11 08:34:52;;;;;;;27.23;17.10;;;4.10;99.90;;;;;;5022816;28;20457;-82
2021/11/11 08:37:20;;;;;;;32.43;17.20;;;4.30;99.90;;;;;;5024184;28;20553;-82
2021/11/11 08:39:49;;;;;;;30.13;16.77;;;4.40;99.90;;;;;;5021621;28;20511;-81
2021/11/11 08:42:16;;;;;;;26.73;16.37;;;4.40;99.90;;;;;;5018836;28;20466;-81
2021/11/11 08:44:45;;;;;;;25.27;15.33;;;4.60;99.90;;;;;;5022036;28;20458;-81
2021/11/11 08:47:13;;;;;;;25.63;15.93;;;4.60;99.90;;;;;;5019591;28;20446;-81
2021/11/11 08:49:40;;;;;;;25.40;14.60;;;4.70;99.90;;;;;;5005551;28;20485;-82
2021/11/11 08:52:11;;;;;;;29.83;16.60;;;4.80;99.90;;;;;;5022259;28;20487;-82
2021/11/11 08:54:38;;;;;;;25.77;16.57;;;4.90;99.90;;;;;;5016865;28;20468;-82
2021/11/11 08:57:06;;;;;;;31.10;17.63;;;5.00;99.90;;;;;;5018768;28;20480;-82
2021/11/11 08:59:34;;;;;;;27.93;17.70;;;5.00;99.90;;;;;;5025250;28;20476;-82
2021/11/11 09:02:01;;;;;;;28.17;18.03;;;5.10;99.90;;;;;;5028190;28;20890;-82
2021/11/11 09:04:28;;;;;;;29.63;18.67;;;5.20;99.90;;;;;;5018044;28;20463;-82
2021/11/11 09:06:58;;;;;;;32.77;16.93;;;5.30;99.90;;;;;;5021679;28;20862;-82
2021/11/11 09:09:27;;;;;;;31.53;18.50;;;5.30;99.90;;;;;;5015900;28;20464;-81
2021/11/11 09:11:53;;;;;;;31.00;18.93;;;5.30;99.90;;;;;;5027256;28;20446;-82
2021/11/11 09:14:21;;;;;;;30.57;17.73;;;5.40;99.90;;;;;;5024421;28;20551;-82
2021/11/11 09:16:47;;;;;;;31.43;19.67;;;5.50;99.90;;;;;;5017872;28;20484;-81
2021/11/11 09:19:14;;;;;;;32.57;17.60;;;5.60;99.90;;;;;;5021853;28;20472;-82
2021/11/11 09:21:42;;;;;;;39.23;20.33;;;5.60;99.90;;;;;;5032664;28;20530;-81
2021/11/11 09:24:10;;;;;;;34.63;20.70;;;5.70;99.90;;;;;;5023017;28;20445;-81
2021/11/11 09:26:38;;;;;;;30.27;17.57;;;5.80;99.90;;;;;;5028106;28;20468;-81
2021/11/11 09:29:06;;;;;;;40.70;21.87;;;5.90;99.90;;;;;;5028080;28;20459;-82
2021/11/11 09:31:33;;;;;;;38.70;21.67;;;6.00;99.90;;;;;;5028351;28;21063;-81
2021/11/11 09:34:00;;;;;;;30.47;18.70;;;6.00;99.90;;;;;;5015459;28;20887;-82
2021/11/11 09:36:27;;;;;;;32.40;19.83;;;6.20;99.90;;;;;;5019781;28;20566;-81
2021/11/11 09:38:54;;;;;;;38.13;23.27;;;6.30;99.90;;;;;;5012047;28;20453;-81
2021/11/11 09:41:22;;;;;;;31.80;21.37;;;6.40;99.90;;;;;;5015680;28;20457;-82
2021/11/11 09:43:53;;;;;;;32.50;19.77;;;6.50;99.90;;;;;;5036614;28;20454;-81
2021/11/11 09:46:22;;;;;;;38.77;21.00;;;6.60;99.90;;;;;;5013716;28;20477;-82
2021/11/11 09:48:52;;;;;;;36.57;21.73;;;6.70;99.90;;;;;;5020959;28;20457;-81
2021/11/11 09:51:22;;;;;;;36.17;22.53;;;6.80;99.90;;;;;;5025202;28;21060;-83
2021/11/11 09:59:19;;;;;;;39.77;20.00;;;7.20;99.90;;;;;;5044351;28;20447;-81
2021/11/11 10:01:46;;;;;;;37.70;21.30;;;7.30;99.90;;;;;;5023374;28;20509;-82
2021/11/11 10:04:13;;;;;;;36.20;21.67;;;7.40;99.90;;;;;;5025413;28;20457;-81
2021/11/11 10:06:41;;;;;;;37.30;20.37;;;7.50;99.90;;;;;;5025569;28;20460;-82
2021/11/11 10:09:17;;;;;;;35.43;21.10;;;7.60;99.90;;;;;;5027633;28;20460;-81
2021/11/11 10:11:52;;;;;;;35.60;19.90;;;7.70;99.90;;;;;;5028622;28;20513;-81
2021/11/11 10:14:24;;;;;;;36.23;22.27;;;7.80;99.90;;;;;;5027562;28;20441;-82
2021/11/11 10:16:53;;;;;;;36.33;20.30;;;7.90;99.90;;;;;;5027008;28;20525;-82
2021/11/11 10:19:20;;;;;;;35.73;20.53;;;8.00;99.90;;;;;;5025538;28;20453;-82
2021/11/11 10:21:51;;;;;;;39.40;21.70;;;8.10;99.90;;;;;;5030744;28;20446;-80
2021/11/11 10:24:21;;;;;;;44.83;24.20;;;8.20;99.90;;;;;;5068816;28;20453;-80
2021/11/11 10:26:56;;;;;;;38.03;21.93;;;8.30;99.90;;;;;;5020007;28;20476;-80
2021/11/11 10:29:31;;;;;;;36.17;21.20;;;8.40;99.90;;;;;;5024036;28;20453;-81
2021/11/11 10:32:02;;;;;;;32.50;19.03;;;8.50;99.90;;;;;;5021673;28;20507;-81
2021/11/11 10:34:29;;;;;;;38.73;22.57;;;8.60;99.90;;;;;;5019284;28;20465;-82
2021/11/11 10:36:57;;;;;;;38.00;20.63;;;8.70;99.90;;;;;;5018914;28;20482;-81
2021/11/11 10:39:27;;;;;;;37.17;21.00;;;8.80;99.90;;;;;;5014398;28;20458;-83
2021/11/11 10:41:59;;;;;;;33.37;19.90;;;8.90;99.90;;;;;;5019792;28;20501;-82
2021/11/11 10:44:33;;;;;;;31.03;19.43;;;8.90;99.90;;;;;;5006506;28;20987;-84
2021/11/11 10:47:03;;;;;;;32.30;19.53;;;9.00;99.90;;;;;;5008942;28;20459;-82
2021/11/11 10:49:34;;;;;;;34.30;19.20;;;9.10;99.90;;;;;;5013171;28;20465;-83
2021/11/11 10:52:36;;;;;;;33.20;19.10;;;9.30;99.90;;;;;;5013273;28;20467;-81
2021/11/11 10:55:22;;;;;;;39.30;20.10;;;9.40;99.90;;;;;;4938283;29;21019;-83
2021/11/11 10:57:53;;;;;;;39.77;21.20;;;9.70;99.90;;;;;;4937385;29;20486;-81
2021/11/11 11:00:36;;;;;;;29.73;18.97;;;10.00;99.90;;;;;;4986339;28;20835;-81
2021/11/11 11:03:06;;;;;;;35.83;19.30;;;10.50;99.90;;;;;;5017373;28;20454;-81
2021/11/11 11:05:37;;;;;;;30.77;18.27;;;11.10;99.90;;;;;;5055618;28;20470;-80
2021/11/11 11:08:07;;;;;;;26.80;16.40;;;12.40;99.90;;;;;;5002011;28;20517;-81
2021/11/11 11:10:36;;;;;;;29.37;15.70;;;14.40;99.90;;;;;;5018074;28;20496;-81
2021/11/11 11:13:08;;;;;;;24.00;15.30;;;17.10;99.90;;;;;;5020127;28;20457;-80
2021/11/11 11:15:46;;;;;;;25.80;15.20;;;19.40;99.90;;;;;;5030912;28;20465;-81
2021/11/11 11:18:14;;;;;;;24.23;16.53;;;21.90;99.90;;;;;;5028955;28;20496;-81
2021/11/11 11:20:41;;;;;;;22.20;14.27;;;24.00;93.70;;;;;;5130839;28;20988;-81
2021/11/11 11:23:25;;;;;;;27.10;17.47;;;25.20;84.30;;;;;;5043341;28;20518;-80
2021/11/11 11:26:02;;;;;;;22.60;15.43;;;25.70;70.70;;;;;;5028824;28;20458;-81
2021/11/11 11:28:32;;;;;;;24.17;15.77;;;26.20;68.70;;;;;;5029461;28;20517;-81
2021/11/11 11:31:02;;;;;;;24.90;15.90;;;27.30;65.30;;;;;;5027180;28;20473;-81
2021/11/11 11:33:39;;;;;;;21.93;14.70;;;27.00;62.40;;;;;;5019246;28;20478;-81
2021/11/11 11:36:06;;;;;;;25.03;16.00;;;26.20;63.70;;;;;;5068782;28;20468;-80
2021/11/11 11:38:38;;;;;;;23.20;15.80;;;25.00;63.00;;;;;;5119741;28;21024;-81
2021/11/11 11:41:24;;;;;;;22.00;15.87;;;23.70;64.60;;;;;;5120212;28;20870;-80
2021/11/11 11:43:52;;;;;;;23.53;15.77;;;22.10;67.40;;;;;;5120190;28;20441;-80
2021/11/11 11:46:23;;;;;;;23.70;15.60;;;20.80;71.40;;;;;;5118342;28;20842;-80
2021/11/11 11:48:51;;;;;;;23.63;15.40;;;20.30;74.00;;;;;;5118612;28;20485;-81
2021/11/11 11:51:21;;;;;;;24.60;16.43;;;19.60;76.10;;;;;;5115355;28;20496;-81
2021/11/11 11:53:51;;;;;;;24.53;17.00;;;18.70;76.20;;;;;;5020419;28;20454;-80
2021/11/11 11:56:23;;;;;;;22.73;15.70;;;18.10;79.00;;;;;;5014824;28;20479;-80
2021/11/11 11:58:55;;;;;;;29.63;16.13;;;17.90;82.40;;;;;;5014633;28;20483;-80
2021/11/11 12:01:40;;;;;;;27.03;17.63;;;17.80;88.80;;;;;;5019198;28;20492;-79
2021/11/11 12:04:19;;;;;;;30.73;17.80;;;17.00;90.50;;;;;;5017875;28;20475;-80
2021/11/11 12:09:43;;;;;;;26.60;17.00;;;16.20;98.60;;;;;;4973110;28;20977;-80
2021/11/11 12:15:15;;;;;;;28.43;18.13;;;16.50;99.90;;;;;;5012674;28;20464;-80
2021/11/11 12:18:20;;;;;;;26.37;17.80;;;16.10;99.90;;;;;;5014086;28;20522;-81
2021/11/11 12:41:19;;;;;;;26.17;17.93;;;14.30;99.90;;;;;;4933464;29;20447;-80
2021/11/11 12:44:11;;;;;;;32.63;17.93;;;13.90;99.90;;;;;;4999106;28;20455;-82
2021/11/11 12:46:40;;;;;;;26.17;16.37;;;13.90;99.90;;;;;;5017628;28;21169;-81
2021/11/11 12:49:28;;;;;;;26.10;17.67;;;13.70;99.90;;;;;;5019547;28;20443;-81
2021/11/11 12:52:26;;;;;;;29.10;17.77;;;13.50;99.90;;;;;;5016149;28;20456;-84
2021/11/11 12:55:08;;;;;;;27.23;17.07;;;13.30;99.90;;;;;;5020332;28;20478;-84
2021/11/11 12:57:55;;;;;;;29.20;19.07;;;13.10;99.90;;;;;;5016122;28;20490;-80
2021/11/11 13:00:38;;;;;;;26.17;17.17;;;13.00;99.90;;;;;;5022957;28;20472;-81
2021/11/11 13:03:06;;;;;;;29.33;17.60;;;12.90;99.90;;;;;;5016440;28;20456;-81
2021/11/11 13:05:48;;;;;;;27.27;18.53;;;12.90;99.90;;;;;;5017223;28;20480;-82
2021/11/11 13:08:17;;;;;;;30.37;16.97;;;12.70;99.90;;;;;;5017737;28;20445;-82
2021/11/11 13:10:56;;;;;;;24.60;16.30;;;12.60;99.90;;;;;;5015934;28;20815;-81
2021/11/11 13:13:26;;;;;;;29.80;18.10;;;12.70;99.90;;;;;;5016639;28;20460;-81
2021/11/11 13:15:58;;;;;;;27.63;18.20;;;12.60;99.90;;;;;;5016982;28;20893;-82
2021/11/11 13:18:43;;;;;;;26.90;16.23;;;12.70;99.90;;;;;;5022878;28;20481;-82
2021/11/11 13:21:12;;;;;;;28.57;17.73;;;12.70;99.90;;;;;;5016384;28;21173;-81
2021/11/11 13:23:46;;;;;;;32.90;19.40;;;12.70;99.90;;;;;;5015871;28;21043;-81
2021/11/11 15:16:34;;;;;;;29.30;17.90;;;10.90;99.90;;;;;;5117207;28;20468;-82
2021/11/11 16:01:14;;;;;;;32.43;16.07;;;10.30;99.90;;;;;;4952810;29;20438;-83
2021/11/11 16:04:01;;;;;;;27.60;13.63;;;10.30;99.90;;;;;;4953943;29;20433;-82
2021/11/11 16:20:19;;;;;;;34.50;19.00;;;10.20;99.90;;;;;;5013831;28;20955;-83
2021/11/11 16:23:01;;;;;;;33.73;17.50;;;10.20;99.90;;;;;;5014977;28;20489;-82
2021/11/11 16:25:52;;;;;;;30.53;17.60;;;10.20;99.90;;;;;;5015628;28;20505;-83
2021/11/11 16:28:20;;;;;;;39.70;19.70;;;10.20;99.90;;;;;;5031039;28;20540;-82